Time;durP1;ratioP1;P1;durP2;ratioP2;P2;SDS_P1;SDS_P2;PMS_P1;PMS_P2;Temp;Humidity;BMP_temperature;BMP_pressure;BME280_temperature;BME280_humidity;BME280_pressure;Samples;Min_cycle;Max_cycle;Signal;HPM_P1;HPM_P2
2022/10/12 00:00:04;;;;;;;6.90;4.40;;;9.10;1.00;;;;;;5047947;28;20195;-55
2022/10/12 00:02:30;;;;;;;8.73;4.70;;;9.10;1.00;;;;;;5050165;28;20290;-54
2022/10/12 00:04:55;;;;;;;7.17;4.57;;;9.00;1.00;;;;;;5047376;28;20489;-54
2022/10/12 00:07:21;;;;;;;8.93;5.77;;;9.20;1.00;;;;;;5043613;28;20220;-52
2022/10/12 00:09:46;;;;;;;7.57;4.07;;;9.10;1.00;;;;;;5051163;28;20552;-57
2022/10/12 00:12:12;;;;;;;6.40;3.90;;;9.10;1.00;;;;;;5045787;28;20208;-55
2022/10/12 00:14:37;;;;;;;7.20;4.70;;;9.10;1.00;;;;;;5047029;28;20294;-54
2022/10/12 00:17:03;;;;;;;9.23;5.17;;;9.00;1.00;;;;;;5050897;28;20252;-54
2022/10/12 00:19:29;;;;;;;6.83;4.33;;;9.00;1.00;;;;;;5049214;28;20188;-55
2022/10/12 00:21:54;;;;;;;7.23;4.20;;;9.00;1.00;;;;;;5050297;28;20681;-56
2022/10/12 00:24:20;;;;;;;7.00;4.00;;;8.90;1.00;;;;;;5047754;28;20201;-56
2022/10/12 00:26:48;;;;;;;6.80;4.27;;;8.90;1.00;;;;;;5040796;28;20337;-53
2022/10/12 00:29:13;;;;;;;6.80;4.40;;;8.90;1.00;;;;;;5045492;28;20199;-55
2022/10/12 00:31:39;;;;;;;6.37;4.10;;;8.90;1.00;;;;;;5046034;28;20450;-54
2022/10/12 00:34:05;;;;;;;6.63;3.90;;;8.80;1.00;;;;;;5044639;28;20266;-54
2022/10/12 00:36:32;;;;;;;7.00;4.40;;;8.80;1.00;;;;;;5043341;28;20190;-56
2022/10/12 00:38:59;;;;;;;8.80;4.23;;;8.80;1.00;;;;;;5042913;28;20223;-55
2022/10/12 00:41:27;;;;;;;5.53;3.43;;;8.80;1.00;;;;;;5044553;28;20439;-54
2022/10/12 00:43:53;;;;;;;7.33;4.50;;;8.80;1.00;;;;;;5043241;28;20481;-55
2022/10/12 00:46:45;;;;;;;7.70;3.60;;;8.80;1.00;;;;;;5041715;28;20983;-53
2022/10/12 00:49:20;;;;;;;8.20;4.27;;;8.70;1.00;;;;;;5043011;28;20282;-54
2022/10/12 00:51:58;;;;;;;6.87;4.40;;;8.70;1.00;;;;;;5042758;28;20488;-54
2022/10/12 00:54:34;;;;;;;6.70;3.83;;;8.70;1.00;;;;;;5045429;28;20457;-55
2022/10/12 00:57:03;;;;;;;9.37;4.10;;;8.60;1.00;;;;;;5042283;28;20452;-56
2022/10/12 00:59:58;;;;;;;8.30;3.83;;;8.60;1.00;;;;;;5045461;28;20446;-54
2022/10/12 01:02:26;;;;;;;5.27;4.03;;;8.60;1.00;;;;;;5042871;28;20461;-54
2022/10/12 01:04:52;;;;;;;5.97;3.83;;;8.60;1.00;;;;;;5045595;28;20798;-55
2022/10/12 01:07:18;;;;;;;10.67;3.80;;;8.60;1.00;;;;;;5043902;28;20517;-57
2022/10/12 01:09:43;;;;;;;7.03;4.57;;;8.60;1.00;;;;;;5046762;28;21041;-56
2022/10/12 01:12:10;;;;;;;15.07;4.70;;;8.60;1.00;;;;;;5049502;28;20665;-55
2022/10/12 01:14:35;;;;;;;6.43;4.03;;;8.50;1.00;;;;;;5047634;28;20222;-54
2022/10/12 01:17:25;;;;;;;8.77;4.40;;;8.50;1.00;;;;;;5047249;28;20459;-53
2022/10/12 01:19:59;;;;;;;5.70;4.13;;;8.50;1.00;;;;;;5039819;28;21138;-54
2022/10/12 01:22:29;;;;;;;6.27;4.10;;;8.40;1.00;;;;;;5048899;28;20958;-54
2022/10/12 01:25:00;;;;;;;9.20;4.13;;;8.40;1.00;;;;;;5048384;28;20514;-56
2022/10/12 01:27:42;;;;;;;10.40;4.20;;;8.40;1.00;;;;;;5047645;28;20817;-55
2022/10/12 01:30:16;;;;;;;6.73;4.00;;;8.40;1.00;;;;;;5048335;28;20492;-54
2022/10/12 01:33:03;;;;;;;10.63;4.43;;;8.40;1.00;;;;;;5045609;28;20523;-51
2022/10/12 01:35:37;;;;;;;11.80;4.80;;;8.40;1.00;;;;;;5046833;28;20509;-53
2022/10/12 01:38:13;;;;;;;7.10;3.60;;;8.30;1.00;;;;;;5046059;28;20450;-56
2022/10/12 01:40:49;;;;;;;7.40;4.57;;;8.40;1.00;;;;;;5049224;28;20455;-54
2022/10/12 01:43:20;;;;;;;9.87;4.53;;;8.30;1.00;;;;;;5047293;28;20610;-56
2022/10/12 01:45:45;;;;;;;9.17;4.63;;;8.30;1.00;;;;;;5051043;28;20842;-55
2022/10/12 01:48:11;;;;;;;6.50;4.40;;;8.30;1.00;;;;;;5044660;28;20485;-56
2022/10/12 01:50:53;;;;;;;7.67;4.40;;;8.30;1.00;;;;;;5048689;28;20195;-54
2022/10/12 01:53:43;;;;;;;8.70;4.53;;;8.30;1.00;;;;;;5047115;28;20509;-53
2022/10/12 01:56:09;;;;;;;6.80;4.43;;;8.30;1.00;;;;;;5049340;28;20477;-53
2022/10/12 01:59:07;;;;;;;9.37;4.30;;;7.50;1.00;;;;;;5044703;28;20443;-54
2022/10/12 02:02:03;;;;;;;8.60;4.47;;;8.30;1.00;;;;;;5029962;28;21057;-51
2022/10/12 02:04:41;;;;;;;5.33;4.10;;;8.20;1.00;;;;;;5049765;28;20448;-57
2022/10/12 02:07:29;;;;;;;7.13;4.07;;;8.20;1.00;;;;;;5063015;28;20804;-54
2022/10/12 02:09:57;;;;;;;5.77;3.70;;;8.20;1.00;;;;;;5046381;28;20526;-57
2022/10/12 02:12:25;;;;;;;5.63;4.60;;;8.10;1.00;;;;;;5049228;28;20508;-53
2022/10/12 02:14:55;;;;;;;5.20;4.20;;;8.10;1.00;;;;;;5045006;28;20474;-52
2022/10/12 02:17:22;;;;;;;6.47;3.97;;;8.00;1.00;;;;;;5047620;28;20877;-55
2022/10/12 02:19:58;;;;;;;11.07;4.43;;;8.10;1.00;;;;;;5047413;28;20450;-56
2022/10/12 02:22:33;;;;;;;13.53;4.60;;;8.00;1.00;;;;;;5048873;28;20445;-52
2022/10/12 02:25:00;;;;;;;6.10;4.17;;;7.90;1.00;;;;;;5045278;28;20457;-53
2022/10/12 02:27:26;;;;;;;8.53;3.83;;;8.00;1.00;;;;;;5043826;28;20456;-51
2022/10/12 02:29:52;;;;;;;4.40;3.70;;;7.80;1.00;;;;;;5047737;28;20456;-53
2022/10/12 02:32:51;;;;;;;6.77;3.90;;;7.80;1.00;;;;;;5048191;28;20479;-54
2022/10/12 02:35:24;;;;;;;4.40;3.63;;;7.80;1.00;;;;;;5049329;28;21006;-54
2022/10/12 02:38:10;;;;;;;8.33;4.80;;;7.80;1.00;;;;;;5040646;28;20607;-55
2022/10/12 02:41:04;;;;;;;6.40;4.20;;;7.80;1.00;;;;;;5047342;28;20776;-53
2022/10/12 02:43:53;;;;;;;9.37;5.03;;;7.90;1.00;;;;;;5046549;28;20466;-56
2022/10/12 02:46:24;;;;;;;6.10;3.60;;;7.90;1.00;;;;;;5046778;28;20459;-55
2022/10/12 02:48:50;;;;;;;7.30;4.77;;;7.90;1.00;;;;;;5046655;28;20426;-55
2022/10/12 02:51:17;;;;;;;6.23;3.87;;;7.80;1.00;;;;;;5044559;28;20450;-54
2022/10/12 02:53:44;;;;;;;6.87;4.20;;;7.80;1.00;;;;;;5046245;28;20447;-55
2022/10/12 02:56:13;;;;;;;14.80;4.37;;;7.80;1.00;;;;;;5047396;28;20474;-55
2022/10/12 02:58:43;;;;;;;12.73;5.13;;;7.70;1.00;;;;;;5046484;28;20442;-54
2022/10/12 03:01:09;;;;;;;12.13;5.37;;;7.70;1.00;;;;;;5056640;28;20442;-55
2022/10/12 03:03:35;;;;;;;8.10;4.20;;;7.70;1.00;;;;;;5051268;28;20626;-55
2022/10/12 03:06:01;;;;;;;9.03;4.60;;;7.70;1.00;;;;;;5053094;28;20576;-54
2022/10/12 03:08:26;;;;;;;5.30;3.90;;;7.70;1.00;;;;;;5051965;28;20222;-56
2022/10/12 03:10:52;;;;;;;6.70;4.37;;;7.70;1.00;;;;;;5052191;28;20255;-53
2022/10/12 03:13:18;;;;;;;9.90;3.83;;;7.70;1.00;;;;;;5052437;28;20210;-56
2022/10/12 03:15:44;;;;;;;7.93;4.80;;;7.60;1.00;;;;;;5052622;28;20212;-56
2022/10/12 03:18:09;;;;;;;8.83;4.30;;;7.60;1.00;;;;;;5053300;28;20804;-54
2022/10/12 03:20:35;;;;;;;9.13;4.40;;;7.50;1.00;;;;;;5068153;28;20190;-56
2022/10/12 03:23:01;;;;;;;5.77;4.40;;;7.50;1.00;;;;;;5058402;28;20262;-54
2022/10/12 03:25:27;;;;;;;6.73;3.90;;;7.50;1.00;;;;;;5051706;28;20463;-55
2022/10/12 03:27:52;;;;;;;7.10;5.00;;;7.50;1.00;;;;;;5050789;28;20230;-53
2022/10/12 03:30:18;;;;;;;11.80;5.00;;;7.50;1.00;;;;;;5054311;28;20191;-54
2022/10/12 03:32:43;;;;;;;7.13;4.43;;;7.50;1.00;;;;;;5051729;28;20275;-54
2022/10/12 03:35:09;;;;;;;5.57;4.23;;;7.50;1.00;;;;;;5052263;28;20219;-55
2022/10/12 03:37:35;;;;;;;7.33;4.27;;;7.50;1.00;;;;;;5052666;28;20188;-53
2022/10/12 03:40:00;;;;;;;5.23;4.37;;;7.40;1.00;;;;;;5054044;28;20664;-55
2022/10/12 03:42:26;;;;;;;6.27;4.00;;;7.40;1.00;;;;;;5052935;28;20513;-54
2022/10/12 03:44:52;;;;;;;7.40;4.33;;;7.50;1.00;;;;;;5034495;28;20269;-55
2022/10/12 03:47:17;;;;;;;9.53;5.10;;;7.50;1.00;;;;;;5054008;28;20199;-55
2022/10/12 03:49:43;;;;;;;10.13;3.97;;;7.50;1.00;;;;;;5051919;28;20219;-56
2022/10/12 03:52:08;;;;;;;9.10;3.90;;;7.50;1.00;;;;;;5054597;28;20195;-54
2022/10/12 03:54:34;;;;;;;8.87;4.57;;;7.40;1.00;;;;;;5052364;28;20224;-54
2022/10/12 03:56:59;;;;;;;8.17;4.60;;;7.40;1.00;;;;;;5052736;28;20183;-57
2022/10/12 03:59:25;;;;;;;6.60;4.80;;;7.30;1.00;;;;;;5051506;28;20289;-55
2022/10/12 04:01:50;;;;;;;7.20;4.70;;;7.30;1.00;;;;;;5048574;28;20224;-57
2022/10/12 04:04:16;;;;;;;8.43;4.57;;;7.30;1.00;;;;;;5054637;28;20222;-56
2022/10/12 04:06:42;;;;;;;6.10;4.93;;;7.30;1.00;;;;;;5055511;28;20183;-55
2022/10/12 04:09:07;;;;;;;6.87;5.10;;;7.30;1.00;;;;;;5053391;28;20198;-52
2022/10/12 04:11:33;;;;;;;8.50;4.93;;;7.30;1.00;;;;;;5050102;28;20665;-53
2022/10/12 04:13:59;;;;;;;7.70;4.30;;;7.30;1.00;;;;;;5050314;28;20188;-56
2022/10/12 04:16:24;;;;;;;8.20;4.93;;;7.30;1.00;;;;;;5052708;28;20182;-57
2022/10/12 04:18:50;;;;;;;6.73;6.13;;;7.30;1.00;;;;;;5051326;28;20188;-55
2022/10/12 04:21:16;;;;;;;6.43;4.33;;;7.20;1.00;;;;;;5050317;28;20184;-57
2022/10/12 04:23:42;;;;;;;6.67;4.57;;;7.20;1.00;;;;;;5051656;28;20184;-56
2022/10/12 04:26:08;;;;;;;9.03;5.17;;;7.20;1.00;;;;;;5052538;28;20480;-56
2022/10/12 04:28:34;;;;;;;9.33;4.93;;;7.20;1.00;;;;;;5052720;28;20434;-55
2022/10/12 04:31:00;;;;;;;7.00;4.83;;;7.30;1.00;;;;;;5052193;28;20651;-55
2022/10/12 04:33:25;;;;;;;5.97;4.50;;;7.30;1.00;;;;;;5052755;28;20800;-55
2022/10/12 04:35:51;;;;;;;8.33;4.20;;;7.30;1.00;;;;;;5052171;28;20513;-53
2022/10/12 04:38:16;;;;;;;12.80;4.50;;;7.30;1.00;;;;;;5052019;28;20187;-57
2022/10/12 04:40:46;;;;;;;5.23;4.40;;;7.30;1.00;;;;;;5052602;28;20218;-56
2022/10/12 04:43:12;;;;;;;11.77;6.40;;;7.20;1.00;;;;;;5052334;28;20216;-56
2022/10/12 04:45:38;;;;;;;5.47;3.80;;;7.10;1.00;;;;;;5051968;28;20449;-54
2022/10/12 04:48:04;;;;;;;6.30;4.10;;;7.20;1.00;;;;;;5052368;28;21003;-56
2022/10/12 04:50:29;;;;;;;7.17;4.43;;;7.20;1.00;;;;;;5051889;28;20210;-56
2022/10/12 04:52:55;;;;;;;9.60;5.03;;;7.20;1.00;;;;;;5052341;28;20184;-56
2022/10/12 04:55:20;;;;;;;6.17;5.03;;;7.20;1.00;;;;;;5051833;28;20672;-54
2022/10/12 04:57:46;;;;;;;9.97;4.80;;;7.20;1.00;;;;;;5055444;28;20202;-55
2022/10/12 05:00:12;;;;;;;8.63;4.67;;;7.20;1.00;;;;;;5047984;28;20609;-56
2022/10/12 05:02:37;;;;;;;7.90;4.77;;;7.20;1.00;;;;;;5052137;28;20704;-55
2022/10/12 05:05:03;;;;;;;8.63;4.80;;;7.10;1.00;;;;;;5052478;28;20450;-54
2022/10/12 05:07:29;;;;;;;9.37;4.90;;;7.10;1.00;;;;;;5051954;28;20209;-56
2022/10/12 05:09:54;;;;;;;11.90;5.70;;;7.10;1.00;;;;;;5047730;28;20224;-53
2022/10/12 05:12:20;;;;;;;9.47;4.03;;;7.20;1.00;;;;;;5048592;28;20192;-54
2022/10/12 05:14:45;;;;;;;10.10;4.67;;;7.30;1.00;;;;;;5053341;28;20221;-55
2022/10/12 05:17:11;;;;;;;6.43;4.67;;;7.30;1.00;;;;;;5059311;28;20682;-55
2022/10/12 05:19:37;;;;;;;7.80;4.23;;;7.40;1.00;;;;;;5053391;28;20196;-55
2022/10/12 05:22:02;;;;;;;4.97;3.83;;;7.40;1.00;;;;;;5050638;28;20212;-55
2022/10/12 05:24:28;;;;;;;8.00;4.77;;;7.40;1.00;;;;;;5050127;28;20661;-53
2022/10/12 05:26:53;;;;;;;6.27;3.50;;;7.40;1.00;;;;;;5051221;28;20528;-55
2022/10/12 05:29:19;;;;;;;5.50;4.80;;;7.50;1.00;;;;;;5049622;28;20702;-54
2022/10/12 05:31:44;;;;;;;10.53;4.93;;;7.50;1.00;;;;;;5046511;28;20514;-56
2022/10/12 05:34:10;;;;;;;7.87;4.23;;;7.50;1.00;;;;;;5047795;28;20198;-56
2022/10/12 05:36:36;;;;;;;7.07;3.80;;;7.40;1.00;;;;;;5049609;28;20197;-55
2022/10/12 05:39:01;;;;;;;8.43;4.33;;;7.40;1.00;;;;;;5050730;28;20186;-56
2022/10/12 05:41:27;;;;;;;8.90;4.63;;;7.30;1.00;;;;;;5050270;28;20194;-54
2022/10/12 05:43:52;;;;;;;6.63;4.30;;;7.30;1.00;;;;;;5051015;28;20221;-54
2022/10/12 05:46:18;;;;;;;9.17;4.50;;;7.30;1.00;;;;;;5056498;28;20206;-55
2022/10/12 05:48:44;;;;;;;7.10;4.47;;;7.40;1.00;;;;;;5066844;28;20214;-55
2022/10/12 05:51:09;;;;;;;5.60;4.50;;;7.40;1.00;;;;;;5050450;28;20555;-55
2022/10/12 05:53:35;;;;;;;13.77;4.40;;;7.50;1.00;;;;;;5049681;28;20245;-56
2022/10/12 05:56:01;;;;;;;5.10;4.00;;;7.50;1.00;;;;;;5050740;28;20694;-56
2022/10/12 05:58:28;;;;;;;9.20;4.67;;;7.50;1.00;;;;;;5050213;28;20180;-56
2022/10/12 06:00:54;;;;;;;9.43;5.23;;;;;;;;;;5051152;28;20435;-56
2022/10/12 06:03:21;;;;;;;6.57;4.43;;;7.50;1.00;;;;;;5050667;28;20455;-56
2022/10/12 06:05:47;;;;;;;9.40;5.13;;;7.50;1.00;;;;;;5051175;28;20454;-56
2022/10/12 06:08:13;;;;;;;8.60;5.10;;;7.50;1.00;;;;;;5051720;28;20437;-56
2022/10/12 06:10:49;;;;;;;8.40;5.53;;;7.50;1.00;;;;;;5070838;28;20464;-56
2022/10/12 06:13:16;;;;;;;8.90;6.30;;;7.40;1.00;;;;;;5070516;28;20445;-56
2022/10/12 06:15:44;;;;;;;8.80;4.30;;;7.50;1.00;;;;;;5070629;28;20517;-57
2022/10/12 06:18:10;;;;;;;12.37;4.47;;;7.50;1.00;;;;;;5049954;28;20534;-55
2022/10/12 06:20:36;;;;;;;7.90;4.47;;;7.50;1.00;;;;;;5050484;28;20558;-56
2022/10/12 06:23:02;;;;;;;5.73;4.07;;;7.50;1.00;;;;;;5050634;28;20437;-56
2022/10/12 06:25:27;;;;;;;6.53;5.57;;;7.50;1.00;;;;;;5050540;28;20204;-56
2022/10/12 06:27:53;;;;;;;9.23;5.27;;;7.60;1.00;;;;;;5054309;28;20191;-55
2022/10/12 06:30:19;;;;;;;6.40;5.00;;;7.60;1.00;;;;;;5050311;28;20435;-54
2022/10/12 06:32:44;;;;;;;5.73;4.20;;;7.70;1.00;;;;;;5050224;28;20187;-56
2022/10/12 06:35:10;;;;;;;9.17;4.20;;;7.70;1.00;;;;;;5049917;28;20516;-53
2022/10/12 06:37:36;;;;;;;9.67;4.77;;;7.80;1.00;;;;;;5050093;28;20223;-54
2022/10/12 06:40:02;;;;;;;5.70;4.17;;;7.80;1.00;;;;;;5054398;28;20186;-54
2022/10/12 06:42:27;;;;;;;7.57;4.63;;;7.90;1.00;;;;;;5053775;28;20207;-55
2022/10/12 06:44:53;;;;;;;11.07;4.53;;;8.00;1.00;;;;;;5049588;28;20508;-54
2022/10/12 06:47:18;;;;;;;11.87;4.53;;;8.00;1.00;;;;;;5050264;28;20188;-55
2022/10/12 06:49:44;;;;;;;8.53;4.93;;;8.10;1.00;;;;;;5049393;28;20223;-54
2022/10/12 06:52:09;;;;;;;9.90;4.80;;;8.20;1.00;;;;;;5050501;28;20207;-54
2022/10/12 06:54:35;;;;;;;10.40;4.87;;;8.30;1.00;;;;;;5050183;28;20203;-53
2022/10/12 06:57:00;;;;;;;9.33;4.73;;;8.40;1.00;;;;;;5050299;28;20190;-56
2022/10/12 06:59:26;;;;;;;10.10;4.43;;;8.40;1.00;;;;;;5050325;28;20186;-54
2022/10/12 07:01:52;;;;;;;9.40;4.37;;;8.50;1.00;;;;;;5050459;28;20269;-56
2022/10/12 07:04:17;;;;;;;15.60;5.00;;;8.50;1.00;;;;;;5050588;28;20243;-52
2022/10/12 07:06:43;;;;;;;8.40;4.60;;;8.60;1.00;;;;;;5050442;28;20187;-53
2022/10/12 07:09:09;;;;;;;8.47;4.27;;;8.80;1.00;;;;;;5050418;28;20776;-56
2022/10/12 07:11:35;;;;;;;6.87;4.37;;;8.80;1.00;;;;;;5049717;28;20187;-56
2022/10/12 07:14:00;;;;;;;7.03;3.93;;;9.00;1.00;;;;;;5050275;28;20434;-56
2022/10/12 07:16:26;;;;;;;8.60;5.27;;;9.20;1.00;;;;;;5050043;28;20459;-57
2022/10/12 07:18:52;;;;;;;6.63;4.10;;;9.40;1.00;;;;;;5049831;28;20672;-54
2022/10/12 07:21:17;;;;;;;9.67;4.60;;;9.80;1.00;;;;;;5047621;28;20191;-56
2022/10/12 07:23:43;;;;;;;11.57;4.67;;;10.00;1.00;;;;;;5049889;28;20677;-55
2022/10/12 07:26:09;;;;;;;7.37;4.60;;;10.10;1.00;;;;;;5050058;28;20533;-55
2022/10/12 07:28:35;;;;;;;5.73;4.50;;;10.10;1.00;;;;;;5049816;28;20181;-54
2022/10/12 07:31:03;;;;;;;8.40;4.80;;;10.10;1.00;;;;;;5049782;28;20442;-56
2022/10/12 07:33:34;;;;;;;8.10;5.13;;;10.20;1.00;;;;;;5048638;28;20451;-53
2022/10/12 07:36:00;;;;;;;9.40;4.10;;;10.30;1.00;;;;;;5049857;28;20468;-55
2022/10/12 07:38:26;;;;;;;9.43;4.60;;;10.30;1.00;;;;;;5050007;28;20435;-55
2022/10/12 07:40:53;;;;;;;10.00;4.67;;;10.40;1.00;;;;;;5049686;28;20438;-53
2022/10/12 07:43:18;;;;;;;5.83;4.47;;;10.50;1.00;;;;;;5049668;28;20495;-56
2022/10/12 07:45:44;;;;;;;9.47;4.10;;;10.60;1.00;;;;;;5049801;28;20454;-55
2022/10/12 07:48:10;;;;;;;9.30;4.67;;;10.60;1.00;;;;;;5052706;28;20195;-54
2022/10/12 07:50:36;;;;;;;5.40;4.10;;;10.90;1.00;;;;;;5053746;28;20192;-55
2022/10/12 07:53:02;;;;;;;7.03;4.90;;;10.90;1.00;;;;;;5052947;28;20449;-55
2022/10/12 07:55:30;;;;;;;5.97;4.03;;;11.10;1.00;;;;;;5053251;28;21004;-54
2022/10/12 07:57:57;;;;;;;11.40;4.20;;;11.10;1.00;;;;;;5052126;28;20192;-55
2022/10/12 08:00:23;;;;;;;7.77;4.10;;;11.10;1.00;;;;;;5053629;28;20433;-57
2022/10/12 08:02:48;;;;;;;7.23;4.00;;;11.20;1.00;;;;;;5051673;28;20523;-57
2022/10/12 08:05:14;;;;;;;6.60;4.00;;;11.30;1.00;;;;;;5051163;28;20244;-55
2022/10/12 08:07:39;;;;;;;7.83;3.83;;;11.40;1.00;;;;;;5035456;28;20266;-54
2022/10/12 08:10:05;;;;;;;5.90;3.93;;;11.50;1.00;;;;;;5053072;28;20183;-53
2022/10/12 08:12:31;;;;;;;7.90;4.27;;;11.60;1.00;;;;;;5053190;28;20237;-53
2022/10/12 08:14:56;;;;;;;7.13;3.60;;;11.80;1.00;;;;;;5053159;28;20548;-55
2022/10/12 08:17:22;;;;;;;7.87;4.47;;;11.80;1.00;;;;;;5053094;28;20231;-56
2022/10/12 08:19:47;;;;;;;7.90;3.70;;;11.90;1.00;;;;;;5053320;28;20188;-55
2022/10/12 08:22:13;;;;;;;8.37;4.10;;;11.90;1.00;;;;;;5051716;28;20658;-56
2022/10/12 08:24:39;;;;;;;9.83;4.07;;;12.00;1.00;;;;;;5056905;28;20544;-55
2022/10/12 08:27:04;;;;;;;12.67;4.23;;;12.20;1.00;;;;;;5052776;28;20275;-54
2022/10/12 08:29:30;;;;;;;10.13;4.40;;;12.30;1.00;;;;;;5052725;28;20533;-53
2022/10/12 08:31:55;;;;;;;6.47;3.90;;;12.40;1.00;;;;;;5051652;28;20191;-56
2022/10/12 08:34:23;;;;;;;7.13;4.37;;;;;;;;;;5052731;28;20670;-55
2022/10/12 08:36:50;;;;;;;9.03;4.07;;;12.60;1.00;;;;;;5051778;28;20267;-54
2022/10/12 08:39:16;;;;;;;8.10;3.90;;;12.80;1.00;;;;;;5052713;28;20485;-57
2022/10/12 08:42:17;;;;;;;7.30;3.93;;;12.90;1.00;;;;;;5052627;28;20422;-54
2022/10/12 08:45:08;;;;;;;8.00;4.20;;;12.90;1.00;;;;;;5050548;28;20470;-55
2022/10/12 08:47:47;;;;;;;7.70;4.10;;;13.20;1.00;;;;;;5045979;28;20895;-54
2022/10/12 08:50:28;;;;;;;5.33;3.43;;;13.40;1.00;;;;;;5051185;28;20789;-56
2022/10/12 08:53:21;;;;;;;10.53;4.40;;;13.60;1.00;;;;;;5051152;28;20545;-56
2022/10/12 08:55:47;;;;;;;6.10;3.63;;;13.80;1.00;;;;;;5050632;28;20566;-55
2022/10/12 08:58:13;;;;;;;9.53;5.00;;;13.70;1.00;;;;;;5051041;28;20988;-54
2022/10/12 09:00:39;;;;;;;7.50;4.00;;;13.80;1.00;;;;;;5050785;28;20448;-55
2022/10/12 09:03:18;;;;;;;11.43;4.43;;;14.00;1.00;;;;;;5066217;28;20199;-55
2022/10/12 09:05:54;;;;;;;8.40;3.80;;;14.10;1.00;;;;;;5072478;28;20657;-55
2022/10/12 09:08:55;;;;;;;7.73;3.30;;;14.10;1.00;;;;;;5067060;28;20525;-56
2022/10/12 09:11:50;;;;;;;10.10;4.10;;;14.20;1.00;;;;;;5072203;28;20761;-56
2022/10/12 09:14:24;;;;;;;5.80;3.87;;;14.50;1.00;;;;;;5072140;28;20930;-53
2022/10/12 09:16:50;;;;;;;5.00;3.63;;;14.90;1.00;;;;;;5072220;28;20437;-54
2022/10/12 09:19:23;;;;;;;13.80;4.83;;;15.00;1.00;;;;;;5072136;28;20440;-55
2022/10/12 09:21:52;;;;;;;11.00;4.10;;;15.30;1.00;;;;;;5072075;28;20468;-55
2022/10/12 09:24:27;;;;;;;4.83;3.07;;;15.40;1.00;;;;;;5072079;28;20433;-53
2022/10/12 09:26:57;;;;;;;6.20;3.67;;;15.60;1.00;;;;;;5071813;28;20436;-56
2022/10/12 09:29:28;;;;;;;6.37;4.73;;;15.80;1.00;;;;;;5054794;28;20492;-55
2022/10/12 09:32:34;;;;;;;6.60;3.67;;;15.90;1.00;;;;;;5051655;28;20504;-55
2022/10/12 09:35:01;;;;;;;6.43;4.13;;;16.10;1.00;;;;;;5051829;28;20542;-54
2022/10/12 09:37:29;;;;;;;9.20;3.30;;;16.20;1.00;;;;;;5051678;28;20968;-55
2022/10/12 09:39:55;;;;;;;8.00;4.00;;;16.40;1.00;;;;;;5051673;28;20436;-56
2022/10/12 09:42:21;;;;;;;10.60;3.80;;;16.40;1.00;;;;;;5051876;28;20501;-55
2022/10/12 09:44:50;;;;;;;6.70;3.40;;;16.50;1.00;;;;;;5051236;28;20473;-54
2022/10/12 09:47:30;;;;;;;12.43;3.83;;;16.50;1.00;;;;;;5051525;28;20645;-55
2022/10/12 09:50:04;;;;;;;9.67;3.67;;;16.60;1.00;;;;;;5050776;28;20421;-56
2022/10/12 09:52:40;;;;;;;5.10;3.03;;;16.50;1.00;;;;;;5051403;28;20452;-57
2022/10/12 09:55:26;;;;;;;11.70;4.50;;;16.50;1.00;;;;;;5051299;28;20575;-56
2022/10/12 09:57:55;;;;;;;10.00;3.20;;;16.50;1.00;;;;;;5050892;28;20504;-54
2022/10/12 10:00:28;;;;;;;7.50;3.27;;;16.60;1.00;;;;;;5051517;28;20408;-55
2022/10/12 10:02:54;;;;;;;10.33;3.57;;;16.80;1.00;;;;;;5051410;28;20440;-57
2022/10/12 10:05:27;;;;;;;9.53;3.77;;;16.90;1.00;;;;;;5051314;28;20406;-56
2022/10/12 10:08:19;;;;;;;5.50;3.57;;;17.10;1.00;;;;;;5059578;28;20421;-55
2022/10/12 10:10:53;;;;;;;9.27;3.53;;;17.10;1.00;;;;;;5057710;28;20527;-54
2022/10/12 10:13:20;;;;;;;7.70;3.33;;;17.30;1.00;;;;;;5061322;28;21309;-56
2022/10/12 10:15:49;;;;;;;7.23;3.10;;;17.40;1.00;;;;;;5070818;28;20517;-58
2022/10/12 10:18:33;;;;;;;13.77;3.90;;;17.30;1.00;;;;;;5070829;28;20432;-55
2022/10/12 10:21:00;;;;;;;10.13;3.30;;;17.20;1.00;;;;;;5070821;28;20940;-55
2022/10/12 10:23:57;;;;;;;10.10;3.03;;;17.10;1.00;;;;;;5069522;28;20415;-55
2022/10/12 10:26:24;;;;;;;7.23;2.80;;;17.20;1.00;;;;;;5065740;28;20453;-57
2022/10/12 10:28:57;;;;;;;10.10;3.10;;;17.40;1.00;;;;;;5069558;28;20871;-56
2022/10/12 10:31:26;;;;;;;8.97;3.13;;;17.80;1.00;;;;;;5050295;28;20422;-54
2022/10/12 10:34:24;;;;;;;8.53;3.80;;;17.90;1.00;;;;;;5049447;28;21008;-54
2022/10/12 10:36:52;;;;;;;6.40;3.00;;;18.60;1.00;;;;;;5043664;28;20480;-55
2022/10/12 10:39:28;;;;;;;3.70;2.77;;;18.60;1.00;;;;;;5050130;28;20422;-57
2022/10/12 10:41:54;;;;;;;7.63;3.20;;;18.60;1.00;;;;;;5052008;28;20620;-53
2022/10/12 10:44:23;;;;;;;6.17;2.57;;;18.50;1.00;;;;;;5070144;28;20457;-55
2022/10/12 10:46:50;;;;;;;7.90;3.40;;;18.50;1.00;;;;;;5070506;28;20440;-55
2022/10/12 10:49:34;;;;;;;6.30;3.20;;;18.40;1.00;;;;;;5070613;28;20728;-54
2022/10/12 10:52:01;;;;;;;7.10;3.60;;;18.60;1.00;;;;;;5061649;28;20438;-54
2022/10/12 10:54:33;;;;;;;5.50;3.03;;;18.80;1.00;;;;;;5050579;28;20442;-54
2022/10/12 10:57:08;;;;;;;7.90;3.37;;;18.80;1.00;;;;;;5050797;28;20950;-55
2022/10/12 10:59:48;;;;;;;7.50;3.70;;;18.80;1.00;;;;;;5050473;28;20421;-56
2022/10/12 11:02:33;;;;;;;7.60;2.93;;;18.90;1.00;;;;;;5050136;28;20449;-53
2022/10/12 11:05:36;;;;;;;5.37;3.40;;;18.90;1.00;;;;;;5050477;28;20414;-54
2022/10/12 11:08:10;;;;;;;5.50;3.03;;;19.30;1.00;;;;;;5048098;28;20412;-57
2022/10/12 11:10:51;;;;;;;8.20;2.80;;;19.30;1.00;;;;;;5050303;28;20773;-55
2022/10/12 11:13:22;;;;;;;5.47;2.90;;;19.30;1.00;;;;;;5052770;28;20418;-55
2022/10/12 11:16:13;;;;;;;4.07;3.10;;;19.10;1.00;;;;;;5055465;28;20555;-55
2022/10/12 11:18:51;;;;;;;5.17;3.20;;;19.10;1.00;;;;;;5044549;28;20418;-55
2022/10/12 11:21:24;;;;;;;7.30;3.13;;;19.30;1.00;;;;;;5054133;28;20917;-55
2022/10/12 11:23:55;;;;;;;7.60;3.20;;;19.50;1.00;;;;;;5054183;28;20905;-56
2022/10/12 11:26:34;;;;;;;6.77;3.43;;;19.50;1.00;;;;;;5053569;28;20447;-55
2022/10/12 11:29:00;;;;;;;9.80;3.10;;;19.60;1.00;;;;;;5053529;28;20465;-53
2022/10/12 11:31:31;;;;;;;5.10;3.00;;;19.50;1.00;;;;;;5053830;28;20890;-55
2022/10/12 11:34:02;;;;;;;7.23;3.20;;;20.90;1.00;;;;;;5051651;28;20197;-55
2022/10/12 11:36:30;;;;;;;5.00;2.83;;;19.50;1.00;;;;;;5053499;28;21192;-54
2022/10/12 11:39:06;;;;;;;7.30;3.47;;;19.50;1.00;;;;;;5053881;28;20452;-51
2022/10/12 11:41:44;;;;;;;6.20;2.87;;;19.50;1.00;;;;;;5053088;28;20418;-56
2022/10/12 11:44:20;;;;;;;4.47;2.93;;;19.60;1.00;;;;;;5053512;28;20446;-55
2022/10/12 11:46:48;;;;;;;8.10;3.77;;;19.80;1.00;;;;;;5053393;28;20502;-55
2022/10/12 11:49:43;;;;;;;6.40;3.13;;;19.60;1.00;;;;;;5053667;28;20435;-54
2022/10/12 11:52:10;;;;;;;8.30;2.80;;;19.50;1.00;;;;;;5053296;28;20458;-55
2022/10/12 11:54:40;;;;;;;6.97;2.73;;;19.50;1.00;;;;;;5053083;28;20972;-54
2022/10/12 11:57:29;;;;;;;7.17;3.40;;;19.40;1.00;;;;;;5053798;28;20969;-55
2022/10/12 12:00:04;;;;;;;6.77;3.23;;;19.30;1.00;;;;;;5049787;28;20396;-55
2022/10/12 12:02:38;;;;;;;4.40;2.97;;;19.30;1.00;;;;;;5053306;28;20410;-57
2022/10/12 12:05:06;;;;;;;9.70;3.13;;;19.20;1.00;;;;;;5053655;28;20856;-55
2022/10/12 12:07:43;;;;;;;8.30;3.70;;;19.10;1.00;;;;;;5053272;28;20422;-55
2022/10/12 12:10:29;;;;;;;4.70;2.90;;;19.00;1.00;;;;;;5052914;28;20497;-55
2022/10/12 12:13:11;;;;;;;5.40;3.00;;;19.20;1.00;;;;;;5051724;28;20432;-55
2022/10/12 12:15:39;;;;;;;5.33;3.00;;;19.30;1.00;;;;;;5053006;28;20446;-56
2022/10/12 12:18:11;;;;;;;9.97;3.00;;;19.30;1.00;;;;;;5053014;28;20442;-54
2022/10/12 12:20:43;;;;;;;6.57;3.00;;;19.20;1.00;;;;;;5053204;28;20444;-55
2022/10/12 12:23:23;;;;;;;5.27;3.20;;;19.20;1.00;;;;;;5050073;28;20430;-55
2022/10/12 12:26:04;;;;;;;7.87;3.10;;;19.30;1.00;;;;;;5062416;28;20517;-53
2022/10/12 12:28:31;;;;;;;9.03;2.90;;;19.20;1.00;;;;;;5073100;28;20502;-55
2022/10/12 12:31:00;;;;;;;4.80;3.10;;;19.30;1.00;;;;;;5072011;28;20432;-54
2022/10/12 12:33:40;;;;;;;5.83;3.17;;;19.50;1.00;;;;;;5072984;28;20410;-56
2022/10/12 12:36:09;;;;;;;7.60;3.00;;;19.50;1.00;;;;;;5072729;28;20471;-54
2022/10/12 12:38:45;;;;;;;5.03;3.00;;;19.50;1.00;;;;;;5053926;28;20474;-56
2022/10/12 12:41:17;;;;;;;13.63;3.77;;;19.20;1.00;;;;;;5052968;28;20420;-53
2022/10/12 12:43:55;;;;;;;5.77;3.10;;;19.10;1.00;;;;;;5050196;28;20475;-55
2022/10/12 12:46:22;;;;;;;4.83;2.70;;;19.20;1.00;;;;;;5052809;28;20453;-54
2022/10/12 12:48:47;;;;;;;9.10;3.37;;;19.40;1.00;;;;;;5052949;28;20449;-55
2022/10/12 12:51:35;;;;;;;7.13;3.03;;;19.40;1.00;;;;;;5052541;28;20495;-55
2022/10/12 12:54:16;;;;;;;6.53;3.50;;;19.40;1.00;;;;;;5052459;28;20187;-55
2022/10/12 12:57:06;;;;;;;5.30;3.10;;;19.20;1.00;;;;;;5052475;28;20452;-56
2022/10/12 13:00:05;;;;;;;7.57;3.67;;;19.10;1.00;;;;;;5052687;28;20432;-53
2022/10/12 13:02:55;;;;;;;11.07;3.40;;;19.10;1.00;;;;;;5052683;28;20416;-56
2022/10/12 13:05:52;;;;;;;7.37;3.10;;;19.00;1.00;;;;;;5052010;28;20984;-55
2022/10/12 13:08:38;;;;;;;5.50;3.03;;;18.90;1.00;;;;;;5051667;28;20424;-56
2022/10/12 13:11:25;;;;;;;4.27;2.47;;;18.80;1.00;;;;;;5052330;28;20763;-56
2022/10/12 13:14:27;;;;;;;8.53;3.30;;;18.80;1.00;;;;;;5052445;28;20433;-53
2022/10/12 13:17:04;;;;;;;8.13;3.33;;;18.90;1.00;;;;;;5052462;28;20994;-54
2022/10/12 13:19:35;;;;;;;7.10;3.50;;;19.00;1.00;;;;;;5051894;28;20814;-53
2022/10/12 13:22:30;;;;;;;6.93;3.03;;;19.10;1.00;;;;;;5050598;28;20473;-55